sensor_id;sensor_type;location;lat;lon;timestamp;P1;durP1;ratioP1;P2;durP2;ratioP2
49610;SDS011;35515;48.766;9.176;2023-04-25T00:01:22;3.10;;;2.53;;
49610;SDS011;35515;48.766;9.176;2023-04-25T00:03:48;3.15;;;2.30;;
49610;SDS011;35515;48.766;9.176;2023-04-25T00:06:15;3.38;;;2.20;;
49610;SDS011;35515;48.766;9.176;2023-04-25T00:08:42;2.13;;;1.83;;
49610;SDS011;35515;48.766;9.176;2023-04-25T00:11:10;3.92;;;1.90;;
49610;SDS011;35515;48.766;9.176;2023-04-25T00:13:37;2.05;;;1.85;;
49610;SDS011;35515;48.766;9.176;2023-04-25T00:16:06;3.35;;;1.70;;
49610;SDS011;35515;48.766;9.176;2023-04-25T00:18:33;3.28;;;1.88;;
49610;SDS011;35515;48.766;9.176;2023-04-25T00:20:59;2.35;;;2.15;;
49610;SDS011;35515;48.766;9.176;2023-04-25T00:23:26;2.03;;;1.60;;
49610;SDS011;35515;48.766;9.176;2023-04-25T00:25:52;2.72;;;2.00;;
49610;SDS011;35515;48.766;9.176;2023-04-25T00:28:20;3.20;;;2.25;;
49610;SDS011;35515;48.766;9.176;2023-04-25T00:30:47;4.38;;;2.28;;
49610;SDS011;35515;48.766;9.176;2023-04-25T00:33:13;2.30;;;1.83;;
49610;SDS011;35515;48.766;9.176;2023-04-25T00:35:40;3.03;;;2.20;;
49610;SDS011;35515;48.766;9.176;2023-04-25T00:38:06;3.22;;;2.40;;
49610;SDS011;35515;48.766;9.176;2023-04-25T00:40:33;3.08;;;2.60;;
49610;SDS011;35515;48.766;9.176;2023-04-25T00:42:59;3.05;;;2.55;;
49610;SDS011;35515;48.766;9.176;2023-04-25T00:45:28;3.90;;;2.40;;
49610;SDS011;35515;48.766;9.176;2023-04-25T00:47:55;3.53;;;2.70;;
49610;SDS011;35515;48.766;9.176;2023-04-25T00:50:22;2.60;;;2.17;;
49610;SDS011;35515;48.766;9.176;2023-04-25T00:52:49;3.60;;;2.33;;
49610;SDS011;35515;48.766;9.176;2023-04-25T00:55:16;2.65;;;2.13;;
49610;SDS011;35515;48.766;9.176;2023-04-25T00:57:43;2.97;;;2.50;;
49610;SDS011;35515;48.766;9.176;2023-04-25T01:00:10;3.05;;;2.33;;
49610;SDS011;35515;48.766;9.176;2023-04-25T01:02:39;3.20;;;2.25;;
49610;SDS011;35515;48.766;9.176;2023-04-25T01:05:07;3.33;;;2.63;;
49610;SDS011;35515;48.766;9.176;2023-04-25T01:07:34;4.18;;;2.63;;
49610;SDS011;35515;48.766;9.176;2023-04-25T01:10:01;2.85;;;2.28;;
49610;SDS011;35515;48.766;9.176;2023-04-25T01:12:28;3.15;;;2.50;;
49610;SDS011;35515;48.766;9.176;2023-04-25T01:14:55;4.28;;;2.50;;
49610;SDS011;35515;48.766;9.176;2023-04-25T01:17:22;3.72;;;2.53;;
49610;SDS011;35515;48.766;9.176;2023-04-25T01:19:50;4.55;;;2.60;;
49610;SDS011;35515;48.766;9.176;2023-04-25T01:22:18;3.28;;;2.20;;
49610;SDS011;35515;48.766;9.176;2023-04-25T01:24:44;3.30;;;2.40;;
49610;SDS011;35515;48.766;9.176;2023-04-25T01:27:12;3.55;;;2.30;;
49610;SDS011;35515;48.766;9.176;2023-04-25T01:29:38;2.63;;;2.42;;
49610;SDS011;35515;48.766;9.176;2023-04-25T01:32:05;4.38;;;3.05;;
49610;SDS011;35515;48.766;9.176;2023-04-25T01:34:32;5.40;;;2.72;;
49610;SDS011;35515;48.766;9.176;2023-04-25T01:36:59;4.55;;;2.50;;
49610;SDS011;35515;48.766;9.176;2023-04-25T01:39:28;3.95;;;2.55;;
49610;SDS011;35515;48.766;9.176;2023-04-25T01:41:54;3.65;;;2.55;;
49610;SDS011;35515;48.766;9.176;2023-04-25T01:44:21;3.70;;;2.40;;
49610;SDS011;35515;48.766;9.176;2023-04-25T01:46:47;4.03;;;2.78;;
49610;SDS011;35515;48.766;9.176;2023-04-25T01:49:14;5.25;;;2.60;;
49610;SDS011;35515;48.766;9.176;2023-04-25T01:51:41;5.68;;;2.90;;
49610;SDS011;35515;48.766;9.176;2023-04-25T01:54:07;3.80;;;2.67;;
49610;SDS011;35515;48.766;9.176;2023-04-25T01:56:37;3.92;;;2.72;;
49610;SDS011;35515;48.766;9.176;2023-04-25T01:59:04;5.35;;;2.80;;
49610;SDS011;35515;48.766;9.176;2023-04-25T02:01:31;6.82;;;2.78;;
49610;SDS011;35515;48.766;9.176;2023-04-25T02:03:57;3.63;;;2.42;;
49610;SDS011;35515;48.766;9.176;2023-04-25T02:06:24;3.42;;;2.45;;
49610;SDS011;35515;48.766;9.176;2023-04-25T02:08:50;5.10;;;2.50;;
49610;SDS011;35515;48.766;9.176;2023-04-25T02:11:17;4.18;;;2.83;;
49610;SDS011;35515;48.766;9.176;2023-04-25T02:13:45;3.38;;;2.40;;
49610;SDS011;35515;48.766;9.176;2023-04-25T02:16:11;4.07;;;3.40;;
49610;SDS011;35515;48.766;9.176;2023-04-25T02:18:38;4.18;;;2.47;;
49610;SDS011;35515;48.766;9.176;2023-04-25T02:21:05;5.32;;;2.55;;
49610;SDS011;35515;48.766;9.176;2023-04-25T02:23:32;3.80;;;2.55;;
49610;SDS011;35515;48.766;9.176;2023-04-25T02:25:59;5.07;;;2.28;;
49610;SDS011;35515;48.766;9.176;2023-04-25T02:28:25;3.72;;;2.50;;
49610;SDS011;35515;48.766;9.176;2023-04-25T02:30:53;4.28;;;2.47;;
49610;SDS011;35515;48.766;9.176;2023-04-25T02:33:20;5.30;;;2.53;;
49610;SDS011;35515;48.766;9.176;2023-04-25T02:35:47;3.05;;;2.42;;
49610;SDS011;35515;48.766;9.176;2023-04-25T02:38:13;6.18;;;2.70;;
49610;SDS011;35515;48.766;9.176;2023-04-25T02:40:40;2.72;;;2.33;;
49610;SDS011;35515;48.766;9.176;2023-04-25T02:43:07;2.58;;;2.20;;
49610;SDS011;35515;48.766;9.176;2023-04-25T02:45:33;5.32;;;2.50;;
49610;SDS011;35515;48.766;9.176;2023-04-25T02:48:01;4.85;;;2.55;;
49610;SDS011;35515;48.766;9.176;2023-04-25T02:50:28;4.20;;;2.63;;
49610;SDS011;35515;48.766;9.176;2023-04-25T02:52:54;3.67;;;2.97;;
49610;SDS011;35515;48.766;9.176;2023-04-25T02:55:21;4.20;;;2.33;;
49610;SDS011;35515;48.766;9.176;2023-04-25T02:57:47;3.63;;;2.20;;
49610;SDS011;35515;48.766;9.176;2023-04-25T03:00:14;3.58;;;2.10;;
49610;SDS011;35515;48.766;9.176;2023-04-25T03:02:41;3.25;;;2.20;;
49610;SDS011;35515;48.766;9.176;2023-04-25T03:05:09;3.97;;;2.53;;
49610;SDS011;35515;48.766;9.176;2023-04-25T03:07:35;4.93;;;2.22;;
49610;SDS011;35515;48.766;9.176;2023-04-25T03:10:02;2.75;;;2.13;;
49610;SDS011;35515;48.766;9.176;2023-04-25T03:12:28;3.65;;;2.58;;
49610;SDS011;35515;48.766;9.176;2023-04-25T03:14:55;3.95;;;2.45;;
49610;SDS011;35515;48.766;9.176;2023-04-25T03:17:21;3.85;;;2.58;;
49610;SDS011;35515;48.766;9.176;2023-04-25T03:19:48;11.77;;;2.95;;
49610;SDS011;35515;48.766;9.176;2023-04-25T03:22:16;6.78;;;3.08;;
49610;SDS011;35515;48.766;9.176;2023-04-25T03:24:42;4.85;;;2.75;;
49610;SDS011;35515;48.766;9.176;2023-04-25T03:27:09;3.30;;;2.70;;
49610;SDS011;35515;48.766;9.176;2023-04-25T03:29:36;2.90;;;2.42;;
49610;SDS011;35515;48.766;9.176;2023-04-25T03:32:02;3.03;;;2.40;;
49610;SDS011;35515;48.766;9.176;2023-04-25T03:34:29;3.58;;;2.85;;
49610;SDS011;35515;48.766;9.176;2023-04-25T03:36:56;6.00;;;2.83;;
49610;SDS011;35515;48.766;9.176;2023-04-25T03:39:23;5.13;;;2.50;;
49610;SDS011;35515;48.766;9.176;2023-04-25T03:41:50;3.67;;;2.80;;
49610;SDS011;35515;48.766;9.176;2023-04-25T03:44:16;4.15;;;2.75;;
49610;SDS011;35515;48.766;9.176;2023-04-25T03:46:43;5.60;;;2.92;;
49610;SDS011;35515;48.766;9.176;2023-04-25T03:49:09;3.95;;;2.78;;
49610;SDS011;35515;48.766;9.176;2023-04-25T03:51:36;5.00;;;3.10;;
49610;SDS011;35515;48.766;9.176;2023-04-25T03:54:03;3.65;;;2.80;;
49610;SDS011;35515;48.766;9.176;2023-04-25T03:56:31;3.72;;;2.88;;
49610;SDS011;35515;48.766;9.176;2023-04-25T03:58:57;4.80;;;3.22;;
49610;SDS011;35515;48.766;9.176;2023-04-25T04:01:24;6.55;;;3.22;;
49610;SDS011;35515;48.766;9.176;2023-04-25T04:03:50;6.88;;;3.10;;
49610;SDS011;35515;48.766;9.176;2023-04-25T04:06:17;3.58;;;2.78;;
49610;SDS011;35515;48.766;9.176;2023-04-25T04:08:45;6.60;;;3.30;;
49610;SDS011;35515;48.766;9.176;2023-04-25T04:11:12;3.95;;;2.92;;
49610;SDS011;35515;48.766;9.176;2023-04-25T04:13:40;5.47;;;2.88;;
49610;SDS011;35515;48.766;9.176;2023-04-25T04:16:06;6.18;;;2.97;;
49610;SDS011;35515;48.766;9.176;2023-04-25T04:18:33;3.35;;;2.97;;
49610;SDS011;35515;48.766;9.176;2023-04-25T04:20:59;4.97;;;2.70;;
49610;SDS011;35515;48.766;9.176;2023-04-25T04:23:26;4.88;;;2.90;;
49610;SDS011;35515;48.766;9.176;2023-04-25T04:25:53;3.95;;;2.80;;
49610;SDS011;35515;48.766;9.176;2023-04-25T04:28:20;3.78;;;3.15;;
49610;SDS011;35515;48.766;9.176;2023-04-25T04:30:48;5.93;;;2.97;;
49610;SDS011;35515;48.766;9.176;2023-04-25T04:33:16;4.72;;;3.25;;
49610;SDS011;35515;48.766;9.176;2023-04-25T04:35:44;3.92;;;3.10;;
49610;SDS011;35515;48.766;9.176;2023-04-25T04:38:11;5.00;;;2.92;;
49610;SDS011;35515;48.766;9.176;2023-04-25T04:40:40;5.15;;;3.00;;
49610;SDS011;35515;48.766;9.176;2023-04-25T04:43:06;5.25;;;2.75;;
49610;SDS011;35515;48.766;9.176;2023-04-25T04:45:33;4.72;;;2.92;;
49610;SDS011;35515;48.766;9.176;2023-04-25T04:48:01;4.65;;;3.00;;
49610;SDS011;35515;48.766;9.176;2023-04-25T04:50:30;4.93;;;3.10;;
49610;SDS011;35515;48.766;9.176;2023-04-25T04:52:58;4.28;;;3.25;;
49610;SDS011;35515;48.766;9.176;2023-04-25T04:55:24;4.13;;;3.13;;
49610;SDS011;35515;48.766;9.176;2023-04-25T04:57:51;4.80;;;3.30;;
49610;SDS011;35515;48.766;9.176;2023-04-25T05:00:17;5.03;;;3.13;;
49610;SDS011;35515;48.766;9.176;2023-04-25T05:02:45;6.13;;;3.45;;
49610;SDS011;35515;48.766;9.176;2023-04-25T05:05:13;5.35;;;3.45;;
49610;SDS011;35515;48.766;9.176;2023-04-25T05:07:40;8.13;;;3.72;;
49610;SDS011;35515;48.766;9.176;2023-04-25T05:10:07;4.70;;;3.38;;
49610;SDS011;35515;48.766;9.176;2023-04-25T05:12:34;5.30;;;3.50;;
49610;SDS011;35515;48.766;9.176;2023-04-25T05:15:00;3.88;;;3.38;;
49610;SDS011;35515;48.766;9.176;2023-04-25T05:17:27;7.63;;;3.33;;
49610;SDS011;35515;48.766;9.176;2023-04-25T05:19:54;4.85;;;3.20;;
49610;SDS011;35515;48.766;9.176;2023-04-25T05:22:22;4.75;;;3.00;;
49610;SDS011;35515;48.766;9.176;2023-04-25T05:24:48;4.85;;;3.83;;
49610;SDS011;35515;48.766;9.176;2023-04-25T05:27:16;4.55;;;3.50;;
49610;SDS011;35515;48.766;9.176;2023-04-25T05:29:43;5.15;;;3.22;;
49610;SDS011;35515;48.766;9.176;2023-04-25T05:32:10;6.55;;;2.92;;
49610;SDS011;35515;48.766;9.176;2023-04-25T05:34:37;4.90;;;3.35;;
49610;SDS011;35515;48.766;9.176;2023-04-25T05:37:03;5.25;;;3.63;;
49610;SDS011;35515;48.766;9.176;2023-04-25T05:39:31;5.47;;;3.25;;
49610;SDS011;35515;48.766;9.176;2023-04-25T05:41:58;6.05;;;3.47;;
49610;SDS011;35515;48.766;9.176;2023-04-25T05:44:24;7.28;;;3.78;;
49610;SDS011;35515;48.766;9.176;2023-04-25T05:46:51;4.82;;;3.22;;
49610;SDS011;35515;48.766;9.176;2023-04-25T05:49:18;4.50;;;3.22;;
49610;SDS011;35515;48.766;9.176;2023-04-25T05:51:44;3.75;;;2.80;;
49610;SDS011;35515;48.766;9.176;2023-04-25T05:54:11;5.22;;;3.42;;
49610;SDS011;35515;48.766;9.176;2023-04-25T05:56:39;5.88;;;3.40;;
49610;SDS011;35515;48.766;9.176;2023-04-25T05:59:05;5.63;;;3.50;;
49610;SDS011;35515;48.766;9.176;2023-04-25T06:01:32;4.88;;;3.17;;
49610;SDS011;35515;48.766;9.176;2023-04-25T06:03:58;4.47;;;3.00;;
49610;SDS011;35515;48.766;9.176;2023-04-25T06:06:25;7.82;;;3.47;;
49610;SDS011;35515;48.766;9.176;2023-04-25T06:08:52;4.60;;;3.10;;
49610;SDS011;35515;48.766;9.176;2023-04-25T06:11:19;5.10;;;3.00;;
49610;SDS011;35515;48.766;9.176;2023-04-25T06:13:47;5.43;;;3.17;;
49610;SDS011;35515;48.766;9.176;2023-04-25T06:16:14;4.78;;;3.40;;
49610;SDS011;35515;48.766;9.176;2023-04-25T06:18:40;4.70;;;2.78;;
49610;SDS011;35515;48.766;9.176;2023-04-25T06:21:07;4.47;;;3.20;;
49610;SDS011;35515;48.766;9.176;2023-04-25T06:23:33;4.18;;;3.13;;
49610;SDS011;35515;48.766;9.176;2023-04-25T06:26:00;4.57;;;3.20;;
49610;SDS011;35515;48.766;9.176;2023-04-25T06:28:26;5.70;;;2.90;;
49610;SDS011;35515;48.766;9.176;2023-04-25T06:30:54;4.20;;;3.25;;
49610;SDS011;35515;48.766;9.176;2023-04-25T06:33:21;5.72;;;4.00;;
49610;SDS011;35515;48.766;9.176;2023-04-25T06:35:49;4.05;;;3.45;;
49610;SDS011;35515;48.766;9.176;2023-04-25T06:38:15;7.80;;;3.65;;
49610;SDS011;35515;48.766;9.176;2023-04-25T06:40:42;5.30;;;3.22;;
49610;SDS011;35515;48.766;9.176;2023-04-25T06:43:09;5.22;;;3.03;;
49610;SDS011;35515;48.766;9.176;2023-04-25T06:45:35;5.15;;;2.85;;
49610;SDS011;35515;48.766;9.176;2023-04-25T06:48:03;4.60;;;3.20;;
49610;SDS011;35515;48.766;9.176;2023-04-25T06:50:30;30.85;;;21.55;;
49610;SDS011;35515;48.766;9.176;2023-04-25T06:52:56;14.18;;;9.73;;
49610;SDS011;35515;48.766;9.176;2023-04-25T06:55:23;12.18;;;10.77;;
49610;SDS011;35515;48.766;9.176;2023-04-25T06:57:49;5.57;;;3.88;;
49610;SDS011;35515;48.766;9.176;2023-04-25T07:00:16;3.97;;;3.17;;
49610;SDS011;35515;48.766;9.176;2023-04-25T07:02:43;4.70;;;3.22;;
49610;SDS011;35515;48.766;9.176;2023-04-25T07:05:11;6.00;;;3.80;;
49610;SDS011;35515;48.766;9.176;2023-04-25T07:07:38;5.50;;;3.72;;
49610;SDS011;35515;48.766;9.176;2023-04-25T07:10:04;4.35;;;3.40;;
49610;SDS011;35515;48.766;9.176;2023-04-25T07:12:31;5.82;;;3.47;;
49610;SDS011;35515;48.766;9.176;2023-04-25T07:14:58;4.35;;;3.20;;
49610;SDS011;35515;48.766;9.176;2023-04-25T07:17:30;4.28;;;3.40;;
49610;SDS011;35515;48.766;9.176;2023-04-25T07:19:57;4.68;;;3.45;;
49610;SDS011;35515;48.766;9.176;2023-04-25T07:22:25;6.20;;;3.65;;
49610;SDS011;35515;48.766;9.176;2023-04-25T07:24:52;6.10;;;3.65;;
49610;SDS011;35515;48.766;9.176;2023-04-25T07:27:18;5.93;;;3.88;;
49610;SDS011;35515;48.766;9.176;2023-04-25T07:29:45;6.20;;;3.63;;
49610;SDS011;35515;48.766;9.176;2023-04-25T07:32:11;4.65;;;3.78;;
49610;SDS011;35515;48.766;9.176;2023-04-25T07:34:38;6.43;;;4.07;;
49610;SDS011;35515;48.766;9.176;2023-04-25T07:37:06;4.78;;;3.80;;
49610;SDS011;35515;48.766;9.176;2023-04-25T07:39:34;5.40;;;4.50;;
49610;SDS011;35515;48.766;9.176;2023-04-25T07:42:02;5.43;;;4.10;;
49610;SDS011;35515;48.766;9.176;2023-04-25T07:44:29;6.80;;;3.88;;
49610;SDS011;35515;48.766;9.176;2023-04-25T07:46:56;6.43;;;4.05;;
49610;SDS011;35515;48.766;9.176;2023-04-25T07:49:23;6.43;;;4.45;;
49610;SDS011;35515;48.766;9.176;2023-04-25T07:51:49;5.60;;;4.30;;
49610;SDS011;35515;48.766;9.176;2023-04-25T07:54:16;8.05;;;5.05;;
49610;SDS011;35515;48.766;9.176;2023-04-25T07:56:44;6.82;;;4.55;;
49610;SDS011;35515;48.766;9.176;2023-04-25T07:59:11;7.43;;;4.78;;
49610;SDS011;35515;48.766;9.176;2023-04-25T08:01:37;5.82;;;4.68;;
49610;SDS011;35515;48.766;9.176;2023-04-25T08:04:04;5.10;;;4.60;;
49610;SDS011;35515;48.766;9.176;2023-04-25T08:06:30;6.47;;;4.60;;
49610;SDS011;35515;48.766;9.176;2023-04-25T08:08:57;7.18;;;5.43;;
49610;SDS011;35515;48.766;9.176;2023-04-25T08:11:24;7.85;;;5.25;;
49610;SDS011;35515;48.766;9.176;2023-04-25T08:13:52;6.32;;;4.50;;
49610;SDS011;35515;48.766;9.176;2023-04-25T08:16:19;5.82;;;3.85;;
49610;SDS011;35515;48.766;9.176;2023-04-25T08:18:45;7.28;;;4.60;;
49610;SDS011;35515;48.766;9.176;2023-04-25T08:21:12;5.63;;;4.35;;
49610;SDS011;35515;48.766;9.176;2023-04-25T08:23:39;7.55;;;4.57;;
49610;SDS011;35515;48.766;9.176;2023-04-25T08:26:05;6.03;;;4.68;;
49610;SDS011;35515;48.766;9.176;2023-04-25T08:28:32;6.28;;;4.35;;
49610;SDS011;35515;48.766;9.176;2023-04-25T08:31:00;5.43;;;4.82;;
49610;SDS011;35515;48.766;9.176;2023-04-25T08:33:26;7.10;;;5.35;;
49610;SDS011;35515;48.766;9.176;2023-04-25T08:35:53;9.77;;;5.38;;
49610;SDS011;35515;48.766;9.176;2023-04-25T08:38:19;7.53;;;5.05;;
49610;SDS011;35515;48.766;9.176;2023-04-25T08:40:48;6.00;;;4.70;;
49610;SDS011;35515;48.766;9.176;2023-04-25T08:43:18;7.03;;;4.90;;
49610;SDS011;35515;48.766;9.176;2023-04-25T08:45:45;7.00;;;4.75;;
49610;SDS011;35515;48.766;9.176;2023-04-25T08:48:14;6.88;;;4.85;;
49610;SDS011;35515;48.766;9.176;2023-04-25T08:50:44;6.57;;;4.35;;
49610;SDS011;35515;48.766;9.176;2023-04-25T08:53:14;6.60;;;4.93;;
49610;SDS011;35515;48.766;9.176;2023-04-25T08:55:44;7.53;;;4.90;;
49610;SDS011;35515;48.766;9.176;2023-04-25T08:58:12;6.78;;;4.95;;
49610;SDS011;35515;48.766;9.176;2023-04-25T09:00:39;8.93;;;5.00;;
49610;SDS011;35515;48.766;9.176;2023-04-25T09:03:06;6.47;;;4.95;;
49610;SDS011;35515;48.766;9.176;2023-04-25T09:05:34;16.23;;;9.93;;
49610;SDS011;35515;48.766;9.176;2023-04-25T09:08:01;7.22;;;5.07;;
49610;SDS011;35515;48.766;9.176;2023-04-25T09:10:28;7.38;;;4.60;;
49610;SDS011;35515;48.766;9.176;2023-04-25T09:13:04;8.38;;;5.05;;
49610;SDS011;35515;48.766;9.176;2023-04-25T09:15:32;5.15;;;3.75;;
49610;SDS011;35515;48.766;9.176;2023-04-25T09:17:59;7.78;;;4.65;;
49610;SDS011;35515;48.766;9.176;2023-04-25T09:20:26;6.80;;;4.13;;
49610;SDS011;35515;48.766;9.176;2023-04-25T09:23:03;6.15;;;4.15;;
49610;SDS011;35515;48.766;9.176;2023-04-25T09:25:35;5.35;;;4.05;;
49610;SDS011;35515;48.766;9.176;2023-04-25T09:28:04;8.88;;;4.95;;
49610;SDS011;35515;48.766;9.176;2023-04-25T09:30:33;7.38;;;5.30;;
49610;SDS011;35515;48.766;9.176;2023-04-25T09:33:04;13.98;;;5.78;;
49610;SDS011;35515;48.766;9.176;2023-04-25T09:35:34;5.80;;;4.72;;
49610;SDS011;35515;48.766;9.176;2023-04-25T09:38:07;7.18;;;5.03;;
49610;SDS011;35515;48.766;9.176;2023-04-25T09:40:38;5.97;;;4.78;;
49610;SDS011;35515;48.766;9.176;2023-04-25T09:43:08;6.40;;;4.95;;
49610;SDS011;35515;48.766;9.176;2023-04-25T09:45:40;6.40;;;4.82;;
49610;SDS011;35515;48.766;9.176;2023-04-25T09:48:10;7.00;;;5.30;;
49610;SDS011;35515;48.766;9.176;2023-04-25T09:50:37;6.43;;;5.05;;
49610;SDS011;35515;48.766;9.176;2023-04-25T09:53:04;8.20;;;5.53;;
49610;SDS011;35515;48.766;9.176;2023-04-25T09:55:33;6.20;;;5.07;;
49610;SDS011;35515;48.766;9.176;2023-04-25T09:58:03;7.38;;;4.55;;
49610;SDS011;35515;48.766;9.176;2023-04-25T10:00:32;7.38;;;4.30;;
49610;SDS011;35515;48.766;9.176;2023-04-25T10:03:00;5.65;;;3.95;;
49610;SDS011;35515;48.766;9.176;2023-04-25T10:05:28;5.25;;;3.70;;
49610;SDS011;35515;48.766;9.176;2023-04-25T10:07:57;5.05;;;3.35;;
49610;SDS011;35515;48.766;9.176;2023-04-25T10:10:24;5.85;;;3.88;;
49610;SDS011;35515;48.766;9.176;2023-04-25T10:12:54;4.55;;;3.00;;
49610;SDS011;35515;48.766;9.176;2023-04-25T10:15:21;3.15;;;2.45;;
49610;SDS011;35515;48.766;9.176;2023-04-25T10:17:48;2.33;;;1.83;;
49610;SDS011;35515;48.766;9.176;2023-04-25T10:20:15;3.63;;;1.90;;
49610;SDS011;35515;48.766;9.176;2023-04-25T10:22:44;2.75;;;1.90;;
49610;SDS011;35515;48.766;9.176;2023-04-25T10:25:13;3.33;;;2.20;;
49610;SDS011;35515;48.766;9.176;2023-04-25T10:27:40;2.40;;;2.10;;
49610;SDS011;35515;48.766;9.176;2023-04-25T10:30:09;3.45;;;2.58;;
49610;SDS011;35515;48.766;9.176;2023-04-25T10:32:41;3.05;;;1.88;;
49610;SDS011;35515;48.766;9.176;2023-04-25T10:35:15;2.78;;;2.10;;
49610;SDS011;35515;48.766;9.176;2023-04-25T10:37:56;2.72;;;1.92;;
49610;SDS011;35515;48.766;9.176;2023-04-25T10:40:23;3.42;;;2.13;;
49610;SDS011;35515;48.766;9.176;2023-04-25T10:42:51;2.05;;;1.85;;
49610;SDS011;35515;48.766;9.176;2023-04-25T10:45:19;3.97;;;1.67;;
49610;SDS011;35515;48.766;9.176;2023-04-25T10:47:46;1.95;;;1.70;;
49610;SDS011;35515;48.766;9.176;2023-04-25T10:50:14;2.30;;;1.48;;
49610;SDS011;35515;48.766;9.176;2023-04-25T10:52:41;2.30;;;1.75;;
49610;SDS011;35515;48.766;9.176;2023-04-25T10:55:08;3.05;;;1.80;;
49610;SDS011;35515;48.766;9.176;2023-04-25T10:57:38;5.25;;;2.65;;
49610;SDS011;35515;48.766;9.176;2023-04-25T11:00:08;4.20;;;3.47;;
49610;SDS011;35515;48.766;9.176;2023-04-25T11:02:39;6.45;;;4.00;;
49610;SDS011;35515;48.766;9.176;2023-04-25T11:05:08;5.70;;;3.53;;
49610;SDS011;35515;48.766;9.176;2023-04-25T11:07:37;4.80;;;3.50;;
49610;SDS011;35515;48.766;9.176;2023-04-25T11:10:05;5.07;;;3.88;;
49610;SDS011;35515;48.766;9.176;2023-04-25T11:12:32;8.20;;;4.20;;
49610;SDS011;35515;48.766;9.176;2023-04-25T11:15:00;4.78;;;3.80;;
49610;SDS011;35515;48.766;9.176;2023-04-25T11:17:27;5.45;;;3.70;;
49610;SDS011;35515;48.766;9.176;2023-04-25T11:19:55;4.25;;;3.58;;
49610;SDS011;35515;48.766;9.176;2023-04-25T11:22:23;6.25;;;3.75;;
49610;SDS011;35515;48.766;9.176;2023-04-25T11:24:49;5.57;;;3.40;;
49610;SDS011;35515;48.766;9.176;2023-04-25T11:27:16;6.85;;;4.18;;
49610;SDS011;35515;48.766;9.176;2023-04-25T11:29:44;5.13;;;3.30;;
49610;SDS011;35515;48.766;9.176;2023-04-25T11:32:12;12.00;;;7.13;;
49610;SDS011;35515;48.766;9.176;2023-04-25T11:34:42;7.70;;;5.00;;
49610;SDS011;35515;48.766;9.176;2023-04-25T11:37:11;3.92;;;2.50;;
49610;SDS011;35515;48.766;9.176;2023-04-25T11:39:39;3.58;;;2.80;;
49610;SDS011;35515;48.766;9.176;2023-04-25T11:42:09;2.80;;;2.00;;
49610;SDS011;35515;48.766;9.176;2023-04-25T11:44:38;2.83;;;2.15;;
49610;SDS011;35515;48.766;9.176;2023-04-25T11:47:08;3.20;;;2.67;;
49610;SDS011;35515;48.766;9.176;2023-04-25T11:49:38;3.90;;;2.97;;
49610;SDS011;35515;48.766;9.176;2023-04-25T11:52:07;4.95;;;3.20;;
49610;SDS011;35515;48.766;9.176;2023-04-25T11:54:40;5.82;;;3.72;;
49610;SDS011;35515;48.766;9.176;2023-04-25T11:57:13;4.70;;;3.42;;
49610;SDS011;35515;48.766;9.176;2023-04-25T11:59:43;5.35;;;3.38;;
49610;SDS011;35515;48.766;9.176;2023-04-25T12:02:24;4.30;;;3.80;;
49610;SDS011;35515;48.766;9.176;2023-04-25T12:04:59;4.70;;;3.70;;
49610;SDS011;35515;48.766;9.176;2023-04-25T12:07:31;6.25;;;4.40;;
49610;SDS011;35515;48.766;9.176;2023-04-25T12:10:07;5.40;;;4.30;;
49610;SDS011;35515;48.766;9.176;2023-04-25T12:12:38;5.30;;;4.15;;
49610;SDS011;35515;48.766;9.176;2023-04-25T12:15:08;5.32;;;4.25;;
49610;SDS011;35515;48.766;9.176;2023-04-25T12:17:44;5.32;;;4.20;;
49610;SDS011;35515;48.766;9.176;2023-04-25T12:20:13;6.82;;;4.10;;
49610;SDS011;35515;48.766;9.176;2023-04-25T12:22:41;4.95;;;4.00;;
49610;SDS011;35515;48.766;9.176;2023-04-25T12:25:12;6.85;;;4.07;;
49610;SDS011;35515;48.766;9.176;2023-04-25T12:27:39;8.48;;;4.63;;
49610;SDS011;35515;48.766;9.176;2023-04-25T12:30:07;6.13;;;4.35;;
49610;SDS011;35515;48.766;9.176;2023-04-25T12:32:35;6.97;;;4.60;;
49610;SDS011;35515;48.766;9.176;2023-04-25T12:35:03;7.20;;;4.88;;
49610;SDS011;35515;48.766;9.176;2023-04-25T12:37:29;8.50;;;4.43;;
49610;SDS011;35515;48.766;9.176;2023-04-25T12:39:56;5.65;;;4.40;;
49610;SDS011;35515;48.766;9.176;2023-04-25T12:42:24;5.95;;;4.47;;
49610;SDS011;35515;48.766;9.176;2023-04-25T12:44:50;5.68;;;4.57;;
49610;SDS011;35515;48.766;9.176;2023-04-25T12:47:17;5.80;;;4.55;;
49610;SDS011;35515;48.766;9.176;2023-04-25T12:49:43;7.22;;;4.75;;
49610;SDS011;35515;48.766;9.176;2023-04-25T12:52:10;8.60;;;5.65;;
49610;SDS011;35515;48.766;9.176;2023-04-25T12:54:37;6.68;;;5.28;;
49610;SDS011;35515;48.766;9.176;2023-04-25T12:57:03;7.60;;;5.75;;
49610;SDS011;35515;48.766;9.176;2023-04-25T12:59:31;10.20;;;6.78;;
49610;SDS011;35515;48.766;9.176;2023-04-25T13:01:58;7.20;;;5.85;;
49610;SDS011;35515;48.766;9.176;2023-04-25T13:04:24;7.25;;;5.60;;
49610;SDS011;35515;48.766;9.176;2023-04-25T13:06:51;9.70;;;6.25;;
49610;SDS011;35515;48.766;9.176;2023-04-25T13:09:17;8.23;;;5.57;;
49610;SDS011;35515;48.766;9.176;2023-04-25T13:11:44;6.05;;;5.15;;
49610;SDS011;35515;48.766;9.176;2023-04-25T13:14:10;8.43;;;5.63;;
49610;SDS011;35515;48.766;9.176;2023-04-25T13:16:38;7.63;;;5.32;;
49610;SDS011;35515;48.766;9.176;2023-04-25T13:19:06;6.57;;;5.47;;
49610;SDS011;35515;48.766;9.176;2023-04-25T13:21:36;7.85;;;5.53;;
49610;SDS011;35515;48.766;9.176;2023-04-25T13:24:02;7.28;;;5.57;;
49610;SDS011;35515;48.766;9.176;2023-04-25T13:26:29;7.63;;;5.60;;
49610;SDS011;35515;48.766;9.176;2023-04-25T13:28:56;8.27;;;5.47;;
49610;SDS011;35515;48.766;9.176;2023-04-25T13:31:23;7.53;;;5.18;;
49610;SDS011;35515;48.766;9.176;2023-04-25T13:33:51;9.18;;;5.43;;
49610;SDS011;35515;48.766;9.176;2023-04-25T13:36:17;10.27;;;5.75;;
49610;SDS011;35515;48.766;9.176;2023-04-25T13:38:44;7.43;;;5.53;;
49610;SDS011;35515;48.766;9.176;2023-04-25T13:41:12;9.48;;;6.55;;
49610;SDS011;35515;48.766;9.176;2023-04-25T13:43:43;9.45;;;7.13;;
49610;SDS011;35515;48.766;9.176;2023-04-25T13:46:10;9.60;;;6.00;;
49610;SDS011;35515;48.766;9.176;2023-04-25T13:48:38;8.05;;;6.18;;
49610;SDS011;35515;48.766;9.176;2023-04-25T13:51:06;10.95;;;6.57;;
49610;SDS011;35515;48.766;9.176;2023-04-25T13:53:33;13.07;;;7.78;;
49610;SDS011;35515;48.766;9.176;2023-04-25T13:56:00;10.73;;;7.55;;
49610;SDS011;35515;48.766;9.176;2023-04-25T13:58:26;10.45;;;7.05;;
49610;SDS011;35515;48.766;9.176;2023-04-25T14:00:53;10.98;;;7.20;;
49610;SDS011;35515;48.766;9.176;2023-04-25T14:03:20;9.77;;;6.72;;
49610;SDS011;35515;48.766;9.176;2023-04-25T14:05:49;11.60;;;8.52;;
49610;SDS011;35515;48.766;9.176;2023-04-25T14:08:17;10.88;;;8.45;;
49610;SDS011;35515;48.766;9.176;2023-04-25T14:10:45;11.93;;;7.78;;
49610;SDS011;35515;48.766;9.176;2023-04-25T14:13:11;10.77;;;8.20;;
49610;SDS011;35515;48.766;9.176;2023-04-25T14:15:38;13.20;;;8.75;;
49610;SDS011;35515;48.766;9.176;2023-04-25T14:18:04;10.05;;;7.63;;
49610;SDS011;35515;48.766;9.176;2023-04-25T14:20:32;12.40;;;7.78;;
49610;SDS011;35515;48.766;9.176;2023-04-25T14:22:58;9.48;;;7.30;;
49610;SDS011;35515;48.766;9.176;2023-04-25T14:25:27;8.93;;;6.75;;
49610;SDS011;35515;48.766;9.176;2023-04-25T14:27:53;12.02;;;7.53;;
49610;SDS011;35515;48.766;9.176;2023-04-25T14:30:20;8.88;;;7.60;;
49610;SDS011;35515;48.766;9.176;2023-04-25T14:32:47;8.00;;;6.70;;
49610;SDS011;35515;48.766;9.176;2023-04-25T14:35:14;7.57;;;6.45;;
49610;SDS011;35515;48.766;9.176;2023-04-25T14:37:41;8.05;;;6.00;;
49610;SDS011;35515;48.766;9.176;2023-04-25T14:40:08;12.63;;;6.28;;
49610;SDS011;35515;48.766;9.176;2023-04-25T14:42:37;5.55;;;4.97;;
49610;SDS011;35515;48.766;9.176;2023-04-25T14:45:04;7.03;;;5.38;;
49610;SDS011;35515;48.766;9.176;2023-04-25T14:47:32;8.57;;;6.03;;
49610;SDS011;35515;48.766;9.176;2023-04-25T14:49:58;6.65;;;5.32;;